Time;durP1;ratioP1;P1;durP2;ratioP2;P2;SDS_P1;SDS_P2;PMS_P1;PMS_P2;Temp;Humidity;BMP_temperature;BMP_pressure;BME280_temperature;BME280_humidity;BME280_pressure;Samples;Min_cycle;Max_cycle;Signal;HPM_P1;HPM_P2
2022/11/20 00:01:59;;;;;;;;;;;;;;;11.07;55.51;100030.66;5043254;28;19916;-78
2022/11/20 00:04:44;;;;;;;;;;;;;;;11.09;55.50;100033.84;5041943;28;20389;-79
2022/11/20 00:07:29;;;;;;;;;;;;;;;11.07;55.38;100038.81;5039268;28;20393;-81
2022/11/20 00:10:13;;;;;;;;;;;;;;;11.03;55.95;100037.09;5043852;28;19921;-79
2022/11/20 00:12:58;;;;;;;;;;;;;;;11.06;55.17;100039.97;5041380;28;19917;-81
2022/11/20 00:15:42;;;;;;;;;;;;;;;11.11;55.03;100042.47;5054327;28;19917;-80
2022/11/20 00:18:27;;;;;;;;;;;;;;;11.10;55.16;100040.88;5054268;28;19917;-81
2022/11/20 00:21:16;;;;;;;;;;;;;;;11.07;55.17;100038.81;5054366;28;20385;-80
2022/11/20 00:24:00;;;;;;;;;;;;;;;11.07;55.29;100041.53;5054396;28;19917;-78
2022/11/20 00:26:45;;;;;;;;;;;;;;;11.25;55.67;100047.63;5054497;28;20309;-80
2022/11/20 00:29:29;;;;;;;;;;;;;;;11.22;55.84;100050.22;5041885;28;19921;-78
2022/11/20 00:32:13;;;;;;;;;;;;;;;11.29;55.66;100061.34;5038650;28;19917;-78
2022/11/20 00:34:58;;;;;;;;;;;;;;;11.28;55.50;100065.19;5054314;28;19917;-78
2022/11/20 00:37:42;;;;;;;;;;;;;;;11.23;55.64;100060.75;5042263;28;19917;-78
2022/11/20 00:40:27;;;;;;;;;;;;;;;11.29;55.77;100066.78;5056989;28;19916;-82
2022/11/20 00:43:11;;;;;;;;;;;;;;;11.18;55.69;100062.88;5053785;28;19917;-80
2022/11/20 00:45:59;;;;;;;;;;;;;;;11.18;55.82;100068.31;5053456;28;19921;-81
2022/11/20 00:48:43;;;;;;;;;;;;;;;11.03;55.82;100069.75;5053363;28;19921;-80
2022/11/20 00:51:28;;;;;;;;;;;;;;;10.91;56.28;100080.59;5043600;28;19925;-78
2022/11/20 00:54:13;;;;;;;;;;;;;;;10.99;56.31;100072.34;5041826;28;20385;-78
2022/11/20 00:56:57;;;;;;;;;;;;;;;11.03;55.58;100077.91;5040334;28;20004;-80
2022/11/20 00:59:41;;;;;;;;;;;;;;;10.92;55.47;100071.31;5043815;28;19917;-78
2022/11/20 01:02:26;;;;;;;;;;;;;;;10.96;55.50;100072.22;5041488;28;19920;-82
2022/11/20 01:05:10;;;;;;;;;;;;;;;11.04;55.09;100069.41;5040322;28;19935;-81
2022/11/20 01:07:54;;;;;;;;;;;;;;;10.92;54.89;100066.63;5052014;28;19920;-80
2022/11/20 01:10:39;;;;;;;;;;;;;;;10.73;55.24;100064.41;5060182;28;19921;-81
2022/11/20 01:13:38;;;;;;;;;;;;;;;10.72;55.44;100070.94;5055580;28;19917;-83
2022/11/20 01:16:32;;;;;;;;;;;;;;;10.97;54.86;100066.44;5070241;28;19924;-80
2022/11/20 01:19:18;;;;;;;;;;;;;;;10.96;54.88;100067.59;5054955;28;19917;-86
2022/11/20 01:22:03;;;;;;;;;;;;;;;10.84;54.87;100064.78;5053767;28;19920;-80
2022/11/20 01:24:47;;;;;;;;;;;;;;;10.95;55.38;100074.16;5061669;28;20301;-81
2022/11/20 01:27:32;;;;;;;;;;;;;;;10.78;54.44;100070.75;5054335;28;19917;-80
2022/11/20 01:30:16;;;;;;;;;;;;;;;10.72;54.20;100072.88;5054090;28;19924;-82
2022/11/20 01:33:01;;;;;;;;;;;;;;;10.69;54.43;100068.13;5049782;28;19916;-82
2022/11/20 01:35:45;;;;;;;;;;;;;;;10.70;54.34;100069.72;5050392;28;19921;-79
2022/11/20 01:38:30;;;;;;;;;;;;;;;10.71;55.05;100069.38;5047999;28;19917;-80
2022/11/20 01:44:20;;;;;;;;;;;;;;;10.75;55.69;100083.09;5060720;28;19917;-79
2022/11/20 01:47:06;;;;;;;;;;;;;;;10.72;55.26;100083.75;5052273;28;20309;-80
2022/11/20 01:49:56;;;;;;;;;;;;;;;10.81;55.01;100086.44;5059920;28;19920;-80
2022/11/20 01:52:45;;;;;;;;;;;;;;;10.80;54.52;100084.84;5047930;28;19921;-80
2022/11/20 01:55:31;;;;;;;;;;;;;;;10.67;55.88;100089.38;5045192;28;20324;-81
2022/11/20 01:58:18;;;;;;;;;;;;;;;10.60;54.49;100075.53;5045190;28;19940;-80
2022/11/20 02:01:04;;;;;;;;;;;;;;;10.62;54.76;100081.44;5041197;28;19916;-79
2022/11/20 02:03:49;;;;;;;;;;;;;;;10.64;54.32;100081.91;5039118;28;19916;-80
2022/11/20 02:06:57;;;;;;;;;;;;;;;10.73;53.79;100080.72;5043195;28;20381;-80
2022/11/20 02:09:42;;;;;;;;;;;;;;;10.59;53.82;100076.66;5040204;28;19920;-81
2022/11/20 02:15:32;;;;;;;;;;;;;;;10.44;53.87;100079.97;5052743;28;19917;-79
2022/11/20 02:18:18;;;;;;;;;;;;;;;10.48;54.11;100076.25;5052569;28;20328;-81
2022/11/20 02:21:08;;;;;;;;;;;;;;;10.63;53.85;100064.78;5043000;28;19917;-79
2022/11/20 02:23:53;;;;;;;;;;;;;;;10.54;53.87;100068.69;5052331;28;19916;-79
2022/11/20 02:26:41;;;;;;;;;;;;;;;10.67;53.29;100065.72;5052426;28;19925;-81
2022/11/20 02:29:39;;;;;;;;;;;;;;;10.48;53.67;100070.81;5052542;28;20297;-80
2022/11/20 02:32:25;;;;;;;;;;;;;;;10.47;54.06;100068.41;5042932;28;19917;-78
2022/11/20 02:35:30;;;;;;;;;;;;;;;10.31;54.17;100072.88;5044822;28;19917;-84
2022/11/20 02:38:15;;;;;;;;;;;;;;;10.18;54.42;100072.75;5058731;28;19917;-79
2022/11/20 02:40:59;;;;;;;;;;;;;;;10.36;54.85;100076.19;5057951;28;19917;-79
2022/11/20 02:43:44;;;;;;;;;;;;;;;10.17;54.57;100071.16;5043146;28;20294;-81
2022/11/20 02:46:29;;;;;;;;;;;;;;;10.25;54.81;100072.25;5045448;28;19916;-81
2022/11/20 02:49:13;;;;;;;;;;;;;;;10.43;54.64;100079.16;5047114;28;19920;-80
2022/11/20 02:51:58;;;;;;;;;;;;;;;9.98;55.97;100078.91;5040355;28;19917;-80
2022/11/20 02:54:43;;;;;;;;;;;;;;;9.90;56.37;100065.38;5047447;28;20382;-82
2022/11/20 02:57:27;;;;;;;;;;;;;;;10.21;56.32;100061.22;5050796;28;19917;-78
2022/11/20 03:00:12;;;;;;;;;;;;;;;10.27;55.81;100065.34;5062516;28;19917;-79
2022/11/20 03:02:57;;;;;;;;;;;;;;;9.95;56.27;100060.56;5049638;28;19917;-79
2022/11/20 03:05:41;;;;;;;;;;;;;;;9.91;56.56;100067.75;5050136;28;19917;-79
2022/11/20 03:08:26;;;;;;;;;;;;;;;9.97;55.82;100073.78;5048209;28;19921;-79
2022/11/20 03:11:10;;;;;;;;;;;;;;;9.77;56.69;100073.41;5050925;28;20308;-79
2022/11/20 03:13:55;;;;;;;;;;;;;;;10.15;56.21;100072.59;5046367;28;19916;-80
2022/11/20 03:16:40;;;;;;;;;;;;;;;10.20;56.32;100070.53;5047777;28;20293;-80
2022/11/20 03:19:25;;;;;;;;;;;;;;;9.70;57.68;100072.31;5052255;28;19917;-79
2022/11/20 03:22:09;;;;;;;;;;;;;;;9.40;58.40;100076.84;5059792;28;20309;-82
2022/11/20 03:24:54;;;;;;;;;;;;;;;9.29;59.14;100071.00;5060911;28;19924;-84
2022/11/20 03:27:38;;;;;;;;;;;;;;;9.20;59.71;100072.91;5062325;28;19916;-83
2022/11/20 03:30:23;;;;;;;;;;;;;;;9.10;59.96;100080.56;5058615;28;19920;-79
2022/11/20 03:33:07;;;;;;;;;;;;;;;9.57;58.82;100086.88;5051647;28;19916;-83
2022/11/20 03:35:52;;;;;;;;;;;;;;;10.00;57.86;100084.00;5048697;28;19917;-81
2022/11/20 03:38:37;;;;;;;;;;;;;;;9.93;57.16;100079.09;5063364;28;19920;-82
2022/11/20 03:41:29;;;;;;;;;;;;;;;9.77;56.81;100086.19;5049193;28;19916;-81
2022/11/20 03:44:13;;;;;;;;;;;;;;;9.42;56.59;100094.41;5061841;28;19917;-79
2022/11/20 03:46:58;;;;;;;;;;;;;;;9.35;57.47;100096.81;5061539;28;19916;-80
2022/11/20 03:49:42;;;;;;;;;;;;;;;9.40;57.88;100096.66;5048006;28;19920;-80
2022/11/20 03:52:27;;;;;;;;;;;;;;;9.61;57.73;100093.25;5045555;28;20313;-80
2022/11/20 03:55:11;;;;;;;;;;;;;;;9.68;57.59;100096.28;5041589;28;19917;-80
2022/11/20 03:57:56;;;;;;;;;;;;;;;9.79;56.88;100101.03;5049063;28;19921;-80
2022/11/20 04:00:40;;;;;;;;;;;;;;;9.65;57.14;100105.84;5046361;28;19920;-84
2022/11/20 04:03:25;;;;;;;;;;;;;;;9.56;57.41;100107.00;5048154;28;19916;-81
2022/11/20 04:06:11;;;;;;;;;;;;;;;9.43;56.84;100115.00;5048249;28;19917;-80
2022/11/20 04:08:56;;;;;;;;;;;;;;;9.23;57.11;100114.88;5046311;28;19917;-80
2022/11/20 04:11:41;;;;;;;;;;;;;;;9.19;57.64;100119.34;5052665;28;19920;-80
2022/11/20 04:14:25;;;;;;;;;;;;;;;9.29;57.41;100125.25;5049977;28;19917;-82
2022/11/20 04:17:11;;;;;;;;;;;;;;;9.29;57.00;100114.41;5068083;28;19917;-82
2022/11/20 04:19:57;;;;;;;;;;;;;;;9.36;56.96;100116.59;5057694;28;19917;-82
2022/11/20 04:22:42;;;;;;;;;;;;;;;9.23;57.06;100114.88;5054814;28;19916;-80
2022/11/20 04:25:27;;;;;;;;;;;;;;;9.06;57.32;100120.31;5054065;28;19921;-84
2022/11/20 04:28:11;;;;;;;;;;;;;;;9.02;57.37;100120.16;5057358;28;19916;-81
2022/11/20 04:31:01;;;;;;;;;;;;;;;9.11;57.82;100118.22;5055340;28;19920;-80
2022/11/20 04:33:46;;;;;;;;;;;;;;;9.19;58.06;100113.94;5066381;28;19917;-80
2022/11/20 04:36:31;;;;;;;;;;;;;;;9.21;58.27;100126.03;5066570;28;19917;-80
2022/11/20 04:39:16;;;;;;;;;;;;;;;9.09;58.44;100119.69;5053970;28;19917;-81
2022/11/20 04:45:05;;;;;;;;;;;;;;;9.11;58.13;100123.66;5050398;28;20389;-81
2022/11/20 04:47:49;;;;;;;;;;;;;;;8.91;58.57;100127.00;5054601;28;19916;-80
2022/11/20 04:50:34;;;;;;;;;;;;;;;8.88;58.41;100133.06;5054290;28;19921;-79
2022/11/20 04:53:19;;;;;;;;;;;;;;;9.05;58.00;100124.13;5041523;28;20304;-79
2022/11/20 04:56:04;;;;;;;;;;;;;;;9.07;57.80;100128.13;5036337;28;19917;-78
2022/11/20 04:58:49;;;;;;;;;;;;;;;9.02;57.79;100133.72;5053858;28;19916;-80
2022/11/20 05:01:34;;;;;;;;;;;;;;;8.57;59.22;100136.69;5043763;28;19917;-80
2022/11/20 05:04:18;;;;;;;;;;;;;;;8.65;59.06;100131.59;5042310;28;19917;-81
2022/11/20 05:07:03;;;;;;;;;;;;;;;8.95;58.48;100130.66;5040419;28;19917;-80
2022/11/20 05:09:48;;;;;;;;;;;;;;;8.91;58.73;100129.72;5043824;28;19936;-81
2022/11/20 05:12:32;;;;;;;;;;;;;;;8.85;58.24;100131.78;5041489;28;19920;-79
2022/11/20 05:15:16;;;;;;;;;;;;;;;8.64;59.73;100138.13;5053470;28;19921;-79
2022/11/20 05:18:01;;;;;;;;;;;;;;;8.84;59.23;100145.66;5053685;28;19921;-79
2022/11/20 05:20:45;;;;;;;;;;;;;;;8.76;59.31;100133.69;5053915;28;19924;-79
2022/11/20 05:23:30;;;;;;;;;;;;;;;8.66;59.24;100146.75;5040028;28;19917;-79
2022/11/20 05:26:17;;;;;;;;;;;;;;;8.47;59.93;100142.41;5053328;28;19917;-79
2022/11/20 05:29:02;;;;;;;;;;;;;;;8.54;59.54;100152.75;5056974;28;19917;-81
2022/11/20 05:31:46;;;;;;;;;;;;;;;8.38;60.06;100155.09;5059201;28;19916;-80
2022/11/20 05:34:31;;;;;;;;;;;;;;;8.63;58.26;100161.75;5090881;22;19929;-79
2022/11/20 05:37:15;;;;;;;;;;;;;;;8.39;58.63;100166.75;5063099;28;19921;-79
2022/11/20 05:40:00;;;;;;;;;;;;;;;8.41;58.67;100173.47;5072102;28;19916;-79
2022/11/20 05:42:44;;;;;;;;;;;;;;;8.28;58.93;100173.56;5071554;28;20397;-79
2022/11/20 05:45:28;;;;;;;;;;;;;;;8.34;58.46;100181.25;5060554;28;20305;-79
2022/11/20 05:48:13;;;;;;;;;;;;;;;8.45;58.31;100176.34;5064030;28;20381;-79
2022/11/20 05:51:02;;;;;;;;;;;;;;;8.38;58.60;100184.91;5071918;28;20331;-78
2022/11/20 05:53:46;;;;;;;;;;;;;;;8.44;58.10;100185.56;5066894;28;19920;-78
2022/11/20 05:56:31;;;;;;;;;;;;;;;8.49;57.47;100183.53;5072449;28;19916;-78
2022/11/20 05:59:15;;;;;;;;;;;;;;;8.45;57.48;100184.47;5072510;28;19917;-78
2022/11/20 06:01:59;;;;;;;;;;;;;;;8.62;56.67;100184.53;5057138;28;19916;-78
2022/11/20 06:04:44;;;;;;;;;;;;;;;8.47;56.80;100184.97;5072200;28;19916;-78
2022/11/20 06:07:28;;;;;;;;;;;;;;;8.22;56.61;100196.47;5059798;28;19917;-78
2022/11/20 06:10:12;;;;;;;;;;;;;;;8.02;57.07;100190.47;5058697;28;19921;-79
2022/11/20 06:12:57;;;;;;;;;;;;;;;7.98;57.48;100199.50;5074837;28;20560;-80
2022/11/20 06:15:42;;;;;;;;;;;;;;;7.95;58.22;100197.44;5060312;28;19916;-78
2022/11/20 06:18:28;;;;;;;;;;;;;;;8.08;57.89;100191.13;5057890;28;19924;-78
2022/11/20 06:21:14;;;;;;;;;;;;;;;8.03;58.13;100192.06;5061956;28;19917;-78
2022/11/20 06:23:58;;;;;;;;;;;;;;;7.88;58.60;100202.47;5051646;28;19917;-78
2022/11/20 06:26:43;;;;;;;;;;;;;;;8.06;58.16;100217.72;5071962;28;19916;-79
2022/11/20 06:29:28;;;;;;;;;;;;;;;8.07;57.48;100216.63;5071883;28;20404;-78
2022/11/20 06:32:13;;;;;;;;;;;;;;;8.16;57.17;100215.56;5074655;28;19924;-78
2022/11/20 06:34:57;;;;;;;;;;;;;;;8.11;57.86;100225.72;5063233;28;19920;-78
2022/11/20 06:37:42;;;;;;;;;;;;;;;8.03;57.60;100234.56;5071602;28;19916;-78
2022/11/20 06:40:26;;;;;;;;;;;;;;;7.97;57.68;100235.84;5044185;28;19917;-78
2022/11/20 06:43:10;;;;;;;;;;;;;;;8.07;57.51;100241.81;5048835;28;19917;-77
2022/11/20 06:45:56;;;;;;;;;;;;;;;7.94;57.21;100239.16;5075749;28;20373;-79
2022/11/20 06:48:40;;;;;;;;;;;;;;;7.86;57.13;100242.59;5075390;28;19917;-77
2022/11/20 06:51:25;;;;;;;;;;;;;;;7.77;57.52;100239.84;5076266;28;19920;-78
2022/11/20 06:54:09;;;;;;;;;;;;;;;8.16;57.16;100242.63;5074802;28;19921;-79
2022/11/20 06:56:53;;;;;;;;;;;;;;;8.13;57.29;100250.56;5075344;28;19916;-78
2022/11/20 06:59:38;;;;;;;;;;;;;;;8.28;56.63;100255.59;5074393;28;19920;-78
2022/11/20 07:02:22;;;;;;;;;;;;;;;8.08;56.60;100261.53;5068844;28;20452;-78
2022/11/20 07:05:06;;;;;;;;;;;;;;;7.82;58.09;100269.50;5064657;28;19916;-78
2022/11/20 07:07:51;;;;;;;;;;;;;;;7.89;57.52;100263.63;5062436;28;19916;-79
2022/11/20 07:10:36;;;;;;;;;;;;;;;7.68;58.75;100261.41;5074582;28;19920;-78
2022/11/20 07:13:20;;;;;;;;;;;;;;;7.65;59.05;100259.34;5062086;28;19916;-78
2022/11/20 07:16:07;;;;;;;;;;;;;;;7.58;59.17;100261.66;5071520;28;19916;-78
2022/11/20 07:18:51;;;;;;;;;;;;;;;7.85;58.94;100268.06;5059821;28;19934;-79
2022/11/20 07:21:35;;;;;;;;;;;;;;;7.95;59.32;100270.53;5061714;28;19916;-78
2022/11/20 07:24:20;;;;;;;;;;;;;;;8.01;58.96;100277.44;5074402;28;19916;-78
2022/11/20 07:27:04;;;;;;;;;;;;;;;8.27;58.63;100278.38;5069518;28;20305;-78
2022/11/20 07:29:49;;;;;;;;;;;;;;;8.32;59.25;100283.69;5063883;28;20376;-77
2022/11/20 07:32:33;;;;;;;;;;;;;;;8.48;59.14;100284.09;5073754;28;19917;-77
2022/11/20 07:35:17;;;;;;;;;;;;;;;8.56;58.77;100288.75;5071824;28;19921;-77
2022/11/20 07:38:02;;;;;;;;;;;;;;;8.51;59.05;100289.69;5071526;28;19920;-76
2022/11/20 07:40:46;;;;;;;;;;;;;;;8.44;59.77;100283.91;5071266;28;19917;-76
2022/11/20 07:43:31;;;;;;;;;;;;;;;8.45;60.44;100285.50;5070427;28;21278;-76
2022/11/20 07:46:15;;;;;;;;;;;;;;;8.56;60.91;100294.97;5064476;28;20320;-77
2022/11/20 07:48:59;;;;;;;;;;;;;;;8.80;60.01;100293.78;5068075;28;19916;-76
2022/11/20 07:51:44;;;;;;;;;;;;;;;8.89;59.77;100291.91;5058510;28;19920;-77
2022/11/20 07:54:28;;;;;;;;;;;;;;;8.76;60.79;100284.69;5070719;28;20312;-77
2022/11/20 07:57:13;;;;;;;;;;;;;;;8.52;62.95;100294.00;5076082;28;19916;-77
2022/11/20 07:59:57;;;;;;;;;;;;;;;8.62;63.03;100294.84;5075550;28;20392;-77
2022/11/20 08:02:42;;;;;;;;;;;;;;;8.88;61.34;100299.25;5071609;28;19916;-76
2022/11/20 08:05:26;;;;;;;;;;;;;;;8.92;62.23;100288.56;5072328;28;19916;-77
2022/11/20 08:08:11;;;;;;;;;;;;;;;8.94;63.11;100294.47;5077481;28;19924;-77
2022/11/20 08:14:14;;;;;;;;;;;;;;;9.17;64.09;100290.56;5057995;28;19916;-77
2022/11/20 08:16:59;;;;;;;;;;;;;;;9.31;63.40;100304.78;5071126;28;19921;-77
2022/11/20 08:19:43;;;;;;;;;;;;;;;9.40;63.25;100300.16;5075230;28;19916;-77
2022/11/20 08:22:28;;;;;;;;;;;;;;;9.45;63.04;100296.50;5071955;28;20307;-77
2022/11/20 08:25:13;;;;;;;;;;;;;;;9.65;62.31;100295.09;5072845;28;19917;-77
2022/11/20 08:27:58;;;;;;;;;;;;;;;9.87;60.74;100308.50;5067148;28;19916;-76
2022/11/20 08:30:42;;;;;;;;;;;;;;;10.03;59.04;100304.19;5071298;28;19920;-76
2022/11/20 08:33:27;;;;;;;;;;;;;;;10.05;57.80;100299.22;5071548;28;20325;-76
2022/11/20 08:36:11;;;;;;;;;;;;;;;10.09;57.89;100300.19;5072332;28;19924;-76
2022/11/20 08:38:56;;;;;;;;;;;;;;;10.18;57.40;100311.84;5073948;28;19916;-77
2022/11/20 08:41:40;;;;;;;;;;;;;;;10.21;57.54;100307.69;5073586;28;19920;-76
2022/11/20 08:44:25;;;;;;;;;;;;;;;10.27;57.57;100309.91;5074139;28;19916;-77
2022/11/20 08:47:09;;;;;;;;;;;;;;;10.29;57.94;100309.59;5066221;28;19921;-76
2022/11/20 08:49:54;;;;;;;;;;;;;;;10.35;57.81;100315.66;5068187;28;19920;-76
2022/11/20 08:52:38;;;;;;;;;;;;;;;10.41;57.31;100322.53;5069779;28;19924;-77
2022/11/20 08:55:22;;;;;;;;;;;;;;;10.46;56.67;100325.06;5062185;28;19916;-77
2022/11/20 08:58:07;;;;;;;;;;;;;;;10.54;54.54;100330.47;5066519;28;19916;-77
2022/11/20 09:00:52;;;;;;;;;;;;;;;10.59;52.96;100326.78;5059004;28;20305;-77
2022/11/20 09:03:36;;;;;;;;;;;;;;;10.66;53.17;100335.25;5058832;28;19917;-76
2022/11/20 09:06:21;;;;;;;;;;;;;;;10.70;53.04;100336.19;5068386;28;19916;-77
2022/11/20 09:09:05;;;;;;;;;;;;;;;10.73;52.28;100341.78;5051738;28;19917;-76
2022/11/20 09:11:50;;;;;;;;;;;;;;;10.75;52.55;100341.47;5440781;22;20328;-79
2022/11/20 09:14:35;;;;;;;;;;;;;;;10.88;52.22;100345.06;5044034;28;19925;-77
2022/11/20 09:17:20;;;;;;;;;;;;;;;10.95;51.58;100348.91;5023466;28;19924;-77
2022/11/20 09:20:04;;;;;;;;;;;;;;;10.98;52.03;100347.44;5022992;28;19956;-78
2022/11/20 09:22:49;;;;;;;;;;;;;;;11.05;51.55;100348.53;5056228;28;19936;-78
2022/11/20 09:25:34;;;;;;;;;;;;;;;11.09;52.01;100346.75;5073214;22;19925;-80
2022/11/20 09:28:18;;;;;;;;;;;;;;;11.21;52.69;100346.06;5071652;28;19921;-81
2022/11/20 09:31:08;;;;;;;;;;;;;;;11.31;53.51;100344.88;5077622;28;19920;-80
2022/11/20 09:33:53;;;;;;;;;;;;;;;11.39;53.97;100349.47;5095339;28;20396;-80
2022/11/20 09:36:37;;;;;;;;;;;;;;;11.47;54.60;100348.66;5074479;28;19921;-80
2022/11/20 09:39:22;;;;;;;;;;;;;;;11.55;54.99;100353.22;5044373;28;19917;-81
2022/11/20 09:42:25;;;;;;;;;;;;;;;11.59;55.76;100351.44;5050849;28;20292;-81
2022/11/20 09:45:21;;;;;;;;;;;;;;;12.01;55.98;100344.09;5057793;28;19917;-79
2022/11/20 09:48:12;;;;;;;;;;;;;;;11.68;55.31;100349.47;5076467;28;20388;-86
2022/11/20 09:51:16;;;;;;;;;;;;;;;11.84;56.45;100345.03;5071616;28;19921;-83
2022/11/20 09:54:20;;;;;;;;;;;;;;;11.91;55.63;100339.06;5061346;28;19924;-81
2022/11/20 09:57:12;;;;;;;;;;;;;;;12.02;55.86;100339.44;5065044;28;19916;-81
2022/11/20 09:59:59;;;;;;;;;;;;;;;12.09;55.83;100329.59;5059758;28;20304;-82
2022/11/20 10:03:01;;;;;;;;;;;;;;;12.25;55.68;100335.22;5062750;28;19920;-82
2022/11/20 10:05:48;;;;;;;;;;;;;;;12.32;55.33;100336.28;5062962;28;19917;-82
2022/11/20 10:08:47;;;;;;;;;;;;;;;12.33;55.33;100337.06;5062306;28;19917;-81
2022/11/20 10:11:31;;;;;;;;;;;;;;;12.48;54.87;100333.72;5071386;28;19920;-81
2022/11/20 10:14:23;;;;;;;;;;;;;;;12.61;54.21;100332.59;5080624;28;19917;-83
2022/11/20 10:17:17;;;;;;;;;;;;;;;12.69;54.42;100337.19;5073072;28;19921;-84
2022/11/20 10:20:15;;;;;;;;;;;;;;;12.74;54.47;100326.03;5048386;28;19917;-83
2022/11/20 10:23:19;;;;;;;;;;;;;;;12.82;53.94;100322.41;5060021;28;19917;-83
2022/11/20 10:26:16;;;;;;;;;;;;;;;12.97;54.20;100322.88;5059449;28;19917;-84
2022/11/20 10:29:07;;;;;;;;;;;;;;;13.09;52.85;100333.81;5061096;28;19924;-83
2022/11/20 10:31:56;;;;;;;;;;;;;;;13.08;54.08;100330.28;5047259;28;19921;-82
2022/11/20 10:34:52;;;;;;;;;;;;;;;13.16;53.60;100336.78;5055181;28;19921;-80
2022/11/20 10:37:40;;;;;;;;;;;;;;;13.20;53.55;100337.69;5071675;28;20137;-82
2022/11/20 10:40:38;;;;;;;;;;;;;;;13.29;53.14;100330.19;5054471;28;19917;-81
2022/11/20 10:43:33;;;;;;;;;;;;;;;13.26;53.41;100323.47;5065834;28;19917;-83
2022/11/20 10:46:22;;;;;;;;;;;;;;;13.35;53.50;100322.56;5052892;28;19917;-84
2022/11/20 10:49:11;;;;;;;;;;;;;;;13.47;53.05;100325.25;5065615;28;19925;-83
2022/11/20 10:52:09;;;;;;;;;;;;;;;13.51;53.11;100326.94;5073390;28;19920;-82
2022/11/20 10:54:56;;;;;;;;;;;;;;;13.53;52.47;100321.94;5068931;28;19917;-82
2022/11/20 10:57:50;;;;;;;;;;;;;;;13.58;52.60;100313.50;5058979;28;19921;-83
2022/11/20 11:00:35;;;;;;;;;;;;;;;13.54;52.26;100309.88;5078899;28;19921;-83
2022/11/20 11:03:23;;;;;;;;;;;;;;;13.56;52.29;100310.31;5051217;28;19917;-84
2022/11/20 11:06:14;;;;;;;;;;;;;;;13.64;52.27;100301.22;5072449;28;19920;-82
2022/11/20 11:09:03;;;;;;;;;;;;;;;13.63;52.13;100301.56;5050532;28;20314;-82
2022/11/20 11:11:47;;;;;;;;;;;;;;;13.64;51.84;100297.69;5079353;28;19924;-80
2022/11/20 11:14:41;;;;;;;;;;;;;;;13.66;52.25;100289.94;5080880;28;19913;-80
2022/11/20 11:17:30;;;;;;;;;;;;;;;13.70;52.49;100296.31;5070801;28;19925;-80
2022/11/20 11:20:17;;;;;;;;;;;;;;;13.75;52.44;100293.34;5089167;28;19909;-85
2022/11/20 11:23:04;;;;;;;;;;;;;;;13.83;52.27;100288.84;5079403;28;19904;-82
2022/11/20 11:25:56;;;;;;;;;;;;;;;13.87;52.32;100289.75;5064293;28;19913;-82
2022/11/20 11:28:41;;;;;;;;;;;;;;;13.90;52.22;100284.41;5074422;28;19921;-82
2022/11/20 11:31:35;;;;;;;;;;;;;;;14.10;52.64;100288.88;5050750;28;20595;-82
2022/11/20 11:34:20;;;;;;;;;;;;;;;14.30;54.84;100284.31;5079815;28;20523;-81
2022/11/20 11:37:10;;;;;;;;;;;;;;;14.39;55.12;100284.16;5054875;28;19917;-81
2022/11/20 11:39:54;;;;;;;;;;;;;;;14.47;55.16;100283.22;5051932;28;19917;-81
2022/11/20 11:42:44;;;;;;;;;;;;;;;14.57;55.04;100279.97;5068888;28;19917;-80
2022/11/20 11:45:28;;;;;;;;;;;;;;;14.61;55.09;100274.56;5068922;28;20412;-80
2022/11/20 11:48:13;;;;;;;;;;;;;;;14.75;54.01;100281.19;5050883;28;19917;-80
2022/11/20 11:50:58;;;;;;;;;;;;;;;14.76;54.75;100276.53;5063897;28;19925;-82
2022/11/20 11:53:42;;;;;;;;;;;;;;;14.82;54.01;100278.66;5062360;28;19917;-80
2022/11/20 11:56:28;;;;;;;;;;;;;;;14.78;54.08;100269.53;5073832;28;19917;-80
2022/11/20 11:59:18;;;;;;;;;;;;;;;14.85;53.95;100269.72;5063099;28;19917;-81
2022/11/20 12:02:15;;;;;;;;;;;;;;;14.85;54.44;100266.97;5050444;28;19916;-80
2022/11/20 12:05:05;;;;;;;;;;;;;;;14.86;53.67;100265.84;5059645;28;19917;-80
2022/11/20 12:07:57;;;;;;;;;;;;;;;14.89;53.79;100270.59;5077427;28;20289;-81
2022/11/20 12:10:53;;;;;;;;;;;;;;;14.93;53.15;100270.69;5043799;28;19925;-81
2022/11/20 12:13:37;;;;;;;;;;;;;;;14.91;52.78;100262.81;5053321;28;19917;-81
2022/11/20 12:16:22;;;;;;;;;;;;;;;14.90;51.77;100258.50;5053014;28;19916;-83
2022/11/20 12:19:11;;;;;;;;;;;;;;;14.95;51.46;100255.47;5044763;28;19917;-82
2022/11/20 12:22:02;;;;;;;;;;;;;;;14.91;51.49;100248.34;5059692;28;19917;-79
2022/11/20 12:24:49;;;;;;;;;;;;;;;14.95;51.71;100257.41;5049458;28;19917;-80
2022/11/20 12:27:44;;;;;;;;;;;;;;;15.01;50.95;100239.56;5040641;28;19918;-82
2022/11/20 12:30:32;;;;;;;;;;;;;;;15.03;50.42;100248.25;5053997;28;19925;-82
2022/11/20 12:33:35;;;;;;;;;;;;;;;15.09;50.42;100257.75;5058092;28;19917;-82
2022/11/20 12:36:40;;;;;;;;;;;;;;;15.10;51.04;100258.53;5060704;28;19917;-82
2022/11/20 12:39:35;;;;;;;;;;;;;;;15.16;50.98;100257.13;5057838;28;19921;-80
2022/11/20 12:45:32;;;;;;;;;;;;;;;15.37;47.88;100246.63;5043983;28;20321;-82
2022/11/20 12:48:17;;;;;;;;;;;;;;;16.10;45.51;100245.81;5071616;28;19917;-81
2022/11/20 12:51:20;;;;;;;;;;;;;;;17.40;42.07;100243.59;5071787;28;19925;-89
2022/11/20 12:54:29;;;;;;;;;;;;;;;18.08;41.24;100248.75;5076550;28;19924;-81
2022/11/20 12:57:14;;;;;;;;;;;;;;;18.42;39.61;100241.25;5075374;28;19924;-81
2022/11/20 13:00:02;;;;;;;;;;;;;;;18.69;39.13;100234.41;5061908;28;19921;-82
2022/11/20 13:03:16;;;;;;;;;;;;;;;18.87;38.14;100242.03;5071726;28;20392;-81
2022/11/20 13:06:11;;;;;;;;;;;;;;;19.05;38.28;100248.44;5059446;28;20388;-82
2022/11/20 13:08:56;;;;;;;;;;;;;;;18.96;38.44;100243.28;5074419;28;19936;-83
2022/11/20 13:11:44;;;;;;;;;;;;;;;19.07;38.17;100246.13;5070629;28;19924;-82
2022/11/20 13:14:29;;;;;;;;;;;;;;;19.04;38.65;100244.94;5057576;28;19921;-81
2022/11/20 13:17:32;;;;;;;;;;;;;;;19.07;38.02;100240.59;5057212;28;20304;-81
2022/11/20 13:20:18;;;;;;;;;;;;;;;19.02;37.85;100239.00;5053939;28;19917;-81
2022/11/20 13:23:03;;;;;;;;;;;;;;;18.93;38.48;100232.25;5068857;28;19916;-80
2022/11/20 13:25:48;;;;;;;;;;;;;;;18.81;38.37;100230.56;5052488;28;19917;-80
2022/11/20 13:28:34;;;;;;;;;;;;;;;18.73;37.86;100231.72;5065054;28;19916;-81
2022/11/20 13:31:35;;;;;;;;;;;;;;;18.84;38.10;100218.03;5055400;28;20464;-82
2022/11/20 13:34:25;;;;;;;;;;;;;;;19.02;38.15;100224.44;5064834;28;19917;-81
2022/11/20 13:37:24;;;;;;;;;;;;;;;18.85;38.03;100219.56;5063729;28;19916;-81
2022/11/20 13:40:08;;;;;;;;;;;;;;;18.96;38.54;100220.44;5080876;28;19920;-81
2022/11/20 13:43:08;;;;;;;;;;;;;;;18.84;37.65;100220.78;5059323;28;19917;-82
2022/11/20 13:46:00;;;;;;;;;;;;;;;18.70;38.10;100213.97;5065054;28;19917;-82
2022/11/20 13:48:46;;;;;;;;;;;;;;;18.62;38.37;100211.56;5067046;28;19917;-82
2022/11/20 13:51:47;;;;;;;;;;;;;;;18.55;38.24;100217.78;5073281;28;19920;-83
2022/11/20 13:54:31;;;;;;;;;;;;;;;18.38;38.72;100221.16;5067899;28;19917;-81
2022/11/20 13:57:22;;;;;;;;;;;;;;;18.48;38.98;100216.91;5059846;28;19920;-84
2022/11/20 14:00:14;;;;;;;;;;;;;;;18.49;39.05;100213.75;5059998;28;19916;-83
2022/11/20 14:03:05;;;;;;;;;;;;;;;18.27;39.79;100217.50;5073866;28;19921;-82
2022/11/20 14:06:02;;;;;;;;;;;;;;;18.28;39.90;100221.84;5057950;28;20289;-83
2022/11/20 14:08:48;;;;;;;;;;;;;;;18.28;40.17;100230.13;5059283;28;20547;-83
2022/11/20 14:11:33;;;;;;;;;;;;;;;18.12;40.41;100229.56;5074209;28;19921;-82
2022/11/20 14:14:25;;;;;;;;;;;;;;;17.83;40.64;100226.47;5058097;28;19936;-83
2022/11/20 14:17:21;;;;;;;;;;;;;;;17.85;41.27;100226.91;5059057;28;19913;-83
2022/11/20 14:20:14;;;;;;;;;;;;;;;17.73;41.90;100218.09;5059801;28;19916;-83
2022/11/20 14:22:59;;;;;;;;;;;;;;;17.55;42.03;100223.38;5076667;28;19921;-84
2022/11/20 14:25:44;;;;;;;;;;;;;;;17.62;42.40;100220.75;5063133;28;19916;-82
2022/11/20 14:28:30;;;;;;;;;;;;;;;17.37;42.40;100208.63;5069241;28;19921;-81
2022/11/20 14:31:21;;;;;;;;;;;;;;;17.21;43.00;100210.75;5072843;28;19921;-81
2022/11/20 14:34:05;;;;;;;;;;;;;;;17.01;43.10;100213.63;5067169;28;20203;-81
2022/11/20 14:36:56;;;;;;;;;;;;;;;16.84;43.68;100216.91;5065611;28;19917;-82
2022/11/20 14:39:42;;;;;;;;;;;;;;;16.82;43.68;100210.19;5087393;28;19917;-80